createdAt,value
2023-04-11T00:00:30.520Z,17.0568
2023-04-11T00:01:32.839Z,14.7290
2023-04-11T00:02:35.336Z,14.5037
2023-04-11T00:03:37.737Z,15.0999
2023-04-11T00:04:39.941Z,16.1123
2023-04-11T00:05:42.212Z,14.6220
2023-04-11T00:06:44.558Z,13.1674
2023-04-11T00:07:46.910Z,14.0962
2023-04-11T00:08:49.245Z,14.7518
2023-04-11T00:09:51.586Z,14.0402
2023-04-11T00:10:53.930Z,14.3142
2023-04-11T00:11:56.345Z,14.4080
2023-04-11T00:12:58.606Z,15.1220
2023-04-11T00:14:00.959Z,16.2007
2023-04-11T00:15:03.295Z,15.3586
2023-04-11T00:16:05.719Z,15.3153
2023-04-11T00:17:07.983Z,15.0712
2023-04-11T00:18:10.314Z,14.8898
2023-04-11T00:19:12.654Z,13.3722
2023-04-11T00:20:14.998Z,14.5808
2023-04-11T00:21:17.365Z,15.5420
2023-04-11T00:22:19.691Z,16.3468
2023-04-11T00:23:22.027Z,16.1862
2023-04-11T00:24:24.364Z,14.4105
2023-04-11T00:25:26.712Z,14.8549
2023-04-11T00:26:29.064Z,14.9345
2023-04-11T00:27:31.392Z,13.3063
2023-04-11T00:28:33.746Z,13.3441
2023-04-11T00:29:36.098Z,14.9513
2023-04-11T00:30:38.421Z,13.7565
2023-04-11T00:31:40.795Z,14.0128
2023-04-11T00:32:43.118Z,16.3417
2023-04-11T00:33:45.457Z,15.7710
2023-04-11T00:34:47.789Z,14.1262
2023-04-11T00:35:50.160Z,13.8682
2023-04-11T00:36:52.556Z,13.8195
2023-04-11T00:37:54.819Z,13.7503
2023-04-11T00:38:57.336Z,13.7576
2023-04-11T00:39:59.509Z,14.1254
2023-04-11T00:41:01.836Z,12.9437
2023-04-11T00:42:04.199Z,14.1353
2023-04-11T00:43:06.532Z,15.4154
2023-04-11T00:44:08.856Z,12.6447
2023-04-11T00:45:11.205Z,13.1267
2023-04-11T00:46:13.577Z,13.3307
2023-04-11T00:47:15.890Z,15.0591
2023-04-11T00:48:18.231Z,14.1015
2023-04-11T00:49:20.563Z,12.1050
2023-04-11T00:50:22.916Z,13.1289
2023-04-11T00:51:25.250Z,13.2207
2023-04-11T00:52:27.655Z,14.6582
2023-04-11T00:53:29.934Z,12.3897
2023-04-11T00:54:32.275Z,13.7685
2023-04-11T00:55:34.608Z,14.1567
2023-04-11T00:56:36.951Z,13.6750
2023-04-11T00:57:39.488Z,14.2141
2023-04-11T00:58:41.649Z,15.2082
2023-04-11T00:59:43.971Z,14.7113
2023-04-11T01:00:46.354Z,14.9267
2023-04-11T01:01:48.785Z,13.2278
2023-04-11T01:02:51.094Z,14.4097
2023-04-11T01:03:53.399Z,16.2883
2023-04-11T01:04:55.686Z,14.4655
2023-04-11T01:05:58.099Z,14.4484
2023-04-11T01:07:00.436Z,12.8472
2023-04-11T01:08:02.786Z,12.6771
2023-04-11T01:09:05.121Z,12.7804
2023-04-11T01:10:07.460Z,12.8647
2023-04-11T01:11:09.797Z,15.0842
2023-04-11T01:12:12.130Z,15.0119
2023-04-11T01:13:14.477Z,13.9777
2023-04-11T01:14:16.813Z,13.6574
2023-04-11T01:15:19.153Z,15.8818
2023-04-11T01:16:21.799Z,14.9336
2023-04-11T01:17:23.867Z,15.5084
2023-04-11T01:18:26.180Z,13.3871
2023-04-11T01:19:28.507Z,14.3805
2023-04-11T01:20:30.843Z,15.7000
2023-04-11T01:21:33.185Z,14.9230
2023-04-11T01:22:35.528Z,15.9678
2023-04-11T01:23:37.888Z,16.4159
2023-04-11T01:24:40.204Z,14.0144
2023-04-11T01:25:42.548Z,14.2868
2023-04-11T01:26:44.889Z,14.4520
2023-04-11T01:27:47.226Z,15.2398
2023-04-11T01:28:49.567Z,12.3469
2023-04-11T01:29:51.902Z,14.0324
2023-04-11T01:30:54.257Z,13.7249
2023-04-11T01:31:56.608Z,15.3938
2023-04-11T01:32:58.976Z,14.6422
2023-04-11T01:34:01.262Z,15.2221
2023-04-11T01:35:03.591Z,15.4018
2023-04-11T01:36:05.971Z,14.6225
2023-04-11T01:37:08.302Z,16.1197
2023-04-11T01:38:10.615Z,15.1401
2023-04-11T01:39:12.961Z,15.3102
2023-04-11T01:40:15.302Z,14.5508
2023-04-11T01:41:17.637Z,15.9185
2023-04-11T01:42:19.994Z,16.9517
2023-04-11T01:43:22.314Z,15.6924
2023-04-11T01:44:24.653Z,15.1319
2023-04-11T01:45:26.998Z,14.5636
2023-04-11T01:46:29.339Z,14.6709
2023-04-11T01:47:31.723Z,15.9228
2023-04-11T01:48:34.097Z,16.0035
2023-04-11T01:49:36.350Z,14.3497
2023-04-11T01:50:38.713Z,16.0226
2023-04-11T01:51:41.040Z,14.3545
2023-04-11T01:52:43.371Z,15.3036
2023-04-11T01:53:45.706Z,16.8531
2023-04-11T01:54:48.043Z,15.1316
2023-04-11T01:55:50.377Z,15.3104
2023-04-11T01:56:52.755Z,14.8573
2023-04-11T01:57:55.061Z,16.4281
2023-04-11T01:58:57.709Z,15.0921
2023-04-11T01:59:59.746Z,16.4247
2023-04-11T02:01:02.198Z,12.5411
2023-04-11T02:02:04.623Z,16.9791
2023-04-11T02:03:06.921Z,18.0462
2023-04-11T02:04:09.212Z,15.1389
2023-04-11T02:05:11.446Z,15.5386
2023-04-11T02:06:13.797Z,16.3084
2023-04-11T02:07:16.132Z,16.9677
2023-04-11T02:08:18.467Z,15.5568
2023-04-11T02:09:20.821Z,15.6282
2023-04-11T02:10:23.152Z,15.1158
2023-04-11T02:11:25.492Z,16.6448
2023-04-11T02:12:27.825Z,17.1855
2023-04-11T02:13:30.179Z,16.1682
2023-04-11T02:14:32.527Z,16.2511
2023-04-11T02:15:34.867Z,14.9891
2023-04-11T02:16:37.193Z,15.4131
2023-04-11T02:17:39.598Z,17.8884
2023-04-11T02:18:41.870Z,14.8207
2023-04-11T02:19:44.216Z,16.7959
2023-04-11T02:20:46.546Z,16.1150
2023-04-11T02:21:48.891Z,15.7777
2023-04-11T02:22:51.225Z,16.8580
2023-04-11T02:23:53.570Z,15.7700
2023-04-11T02:24:55.921Z,17.2629
2023-04-11T02:25:58.234Z,14.8525
2023-04-11T02:27:00.569Z,15.8963
2023-04-11T02:28:02.909Z,17.2986
2023-04-11T02:29:05.242Z,16.8940
2023-04-11T02:30:07.603Z,14.9294
2023-04-11T02:31:10.060Z,16.3686
2023-04-11T02:32:12.347Z,16.5663
2023-04-11T02:33:14.617Z,15.2430
2023-04-11T02:34:16.945Z,15.3056
2023-04-11T02:35:19.305Z,14.3084
2023-04-11T02:36:21.623Z,17.1225
2023-04-11T02:37:23.960Z,13.8987
2023-04-11T02:38:26.308Z,16.5333
2023-04-11T02:39:28.637Z,15.5620
2023-04-11T02:40:30.995Z,13.9618
2023-04-11T02:41:33.327Z,16.4078
2023-04-11T02:42:35.661Z,15.3948
2023-04-11T02:43:38.009Z,15.7008
2023-04-11T02:44:40.346Z,14.6107
2023-04-11T02:45:42.704Z,15.4976
2023-04-11T02:46:45.046Z,15.8974
2023-04-11T02:47:47.393Z,14.9013
2023-04-11T02:48:49.702Z,15.9507
2023-04-11T02:49:52.039Z,17.0412
2023-04-11T02:50:54.390Z,15.4588
2023-04-11T02:51:56.715Z,14.8324
2023-04-11T02:52:59.061Z,16.3885
2023-04-11T02:54:01.388Z,16.1198
2023-04-11T02:55:03.729Z,15.6088
2023-04-11T02:56:06.070Z,16.3870
2023-04-11T02:57:08.407Z,17.7733
2023-04-11T02:58:10.744Z,17.3312
2023-04-11T02:59:13.079Z,17.1455
2023-04-11T03:00:15.434Z,17.8109
2023-04-11T03:01:17.768Z,16.2099
2023-04-11T03:02:20.242Z,18.1712
2023-04-11T03:03:22.498Z,16.1270
2023-04-11T03:04:24.851Z,19.0740
2023-04-11T03:05:27.141Z,17.2540
2023-04-11T03:06:29.430Z,18.5473
2023-04-11T03:07:31.779Z,17.8350
2023-04-11T03:08:34.113Z,18.6175
2023-04-11T03:09:36.459Z,18.3100
2023-04-11T03:10:38.800Z,19.5636
2023-04-11T03:11:41.140Z,18.8410
2023-04-11T03:12:43.468Z,18.7578
2023-04-11T03:13:45.811Z,18.5479
2023-04-11T03:14:48.160Z,19.8047
2023-04-11T03:15:50.580Z,18.1046
2023-04-11T03:16:52.829Z,19.3293
2023-04-11T03:17:55.204Z,19.2529
2023-04-11T03:18:57.692Z,17.4505
2023-04-11T03:19:59.859Z,18.5449
2023-04-11T03:21:02.200Z,19.4902
2023-04-11T03:22:04.526Z,18.7486
2023-04-11T03:23:06.861Z,19.6022
2023-04-11T03:24:09.200Z,20.1215
2023-04-11T03:25:11.552Z,18.4272
2023-04-11T03:26:13.882Z,18.3116
2023-04-11T03:27:16.209Z,17.8595
2023-04-11T03:28:18.554Z,19.6771
2023-04-11T03:29:20.887Z,18.2626
2023-04-11T03:30:23.231Z,19.3034
2023-04-11T03:31:25.585Z,19.9557
2023-04-11T03:32:27.950Z,19.3265
2023-04-11T03:33:30.245Z,18.9550
2023-04-11T03:34:32.599Z,20.5891
2023-04-11T03:35:34.953Z,19.5732
2023-04-11T03:36:37.278Z,21.0464
2023-04-11T03:37:39.592Z,19.9394
2023-04-11T03:38:41.940Z,19.1468
2023-04-11T03:39:44.271Z,17.7553
2023-04-11T03:40:46.620Z,18.8791
2023-04-11T03:41:48.984Z,18.8717
2023-04-11T03:42:51.285Z,19.4311
2023-04-11T03:43:53.630Z,17.5765
2023-04-11T03:44:55.967Z,19.9946
2023-04-11T03:45:58.296Z,22.4799
2023-04-11T03:47:00.821Z,21.4208
2023-04-11T03:48:03.002Z,19.2560
2023-04-11T03:49:05.314Z,20.7635
2023-04-11T03:50:07.652Z,19.1705
2023-04-11T03:51:09.988Z,22.5941
2023-04-11T03:52:12.329Z,20.3546
2023-04-11T03:53:14.671Z,19.4832
2023-04-11T03:54:17.003Z,18.5882
2023-04-11T03:55:19.347Z,19.3582
2023-04-11T03:56:21.717Z,19.5308
2023-04-11T03:57:24.031Z,19.3039
2023-04-11T03:58:26.376Z,19.7822
2023-04-11T03:59:28.699Z,20.4257
2023-04-11T04:00:31.036Z,21.1070
2023-04-11T04:01:33.408Z,18.7663
2023-04-11T04:02:35.795Z,20.5553
2023-04-11T04:03:38.409Z,20.4392
2023-04-11T04:04:40.546Z,21.5716
2023-04-11T04:05:42.754Z,19.3691
2023-04-11T04:06:45.080Z,18.6593
2023-04-11T04:07:47.419Z,21.4749
2023-04-11T04:08:49.749Z,20.0826
2023-04-11T04:09:52.108Z,21.9093
2023-04-11T04:10:54.450Z,22.1771
2023-04-11T04:11:56.760Z,20.6773
2023-04-11T04:12:59.105Z,19.4765
2023-04-11T04:14:01.434Z,19.6050
2023-04-11T04:15:03.800Z,20.3574
2023-04-11T04:16:06.321Z,20.5706
2023-04-11T04:17:08.447Z,19.0068
2023-04-11T04:18:10.876Z,19.4298
2023-04-11T04:19:13.122Z,19.2535
2023-04-11T04:20:15.460Z,19.1334
2023-04-11T04:21:17.805Z,22.0621
2023-04-11T04:22:20.136Z,22.9790
2023-04-11T04:23:22.455Z,19.7711
2023-04-11T04:24:24.793Z,18.4195
2023-04-11T04:25:27.151Z,16.6566
2023-04-11T04:26:29.461Z,17.8864
2023-04-11T04:27:31.789Z,18.9991
2023-04-11T04:28:34.153Z,18.2332
2023-04-11T04:29:36.455Z,23.4769
2023-04-11T04:30:38.806Z,20.4890
2023-04-11T04:31:41.200Z,22.4074
2023-04-11T04:32:43.509Z,20.3306
2023-04-11T04:33:45.787Z,20.0479
2023-04-11T04:34:48.119Z,19.5083
2023-04-11T04:35:50.584Z,20.1135
2023-04-11T04:36:52.789Z,22.8999
2023-04-11T04:37:55.128Z,19.4629
2023-04-11T04:38:57.470Z,20.6402
2023-04-11T04:39:59.798Z,16.7532
2023-04-11T04:41:02.138Z,15.7764
2023-04-11T04:42:04.448Z,18.9828
2023-04-11T04:43:06.779Z,20.1001
2023-04-11T04:44:09.098Z,18.3467
2023-04-11T04:45:11.453Z,18.2229
2023-04-11T04:46:13.803Z,17.8140
2023-04-11T04:47:16.086Z,17.3117
2023-04-11T04:48:18.414Z,21.2622
2023-04-11T04:49:20.746Z,17.4250
2023-04-11T04:50:23.074Z,18.7567
2023-04-11T04:51:25.401Z,18.2644
2023-04-11T04:52:27.744Z,17.8590
2023-04-11T04:53:30.060Z,18.4860
2023-04-11T04:54:32.395Z,18.7609
2023-04-11T04:55:34.720Z,18.6489
2023-04-11T04:56:37.063Z,18.4873
2023-04-11T04:57:39.504Z,21.3560
2023-04-11T04:58:41.707Z,20.9065
2023-04-11T04:59:44.119Z,18.1629
2023-04-11T05:00:46.406Z,19.1353
2023-04-11T05:01:48.835Z,17.8825
2023-04-11T05:02:51.099Z,18.9675
2023-04-11T05:03:53.437Z,19.5204
2023-04-11T05:04:55.678Z,19.8972
2023-04-11T05:05:58.038Z,19.6247
2023-04-11T05:07:00.339Z,20.1443
2023-04-11T05:08:02.663Z,18.6139
2023-04-11T05:09:05.010Z,17.0345
2023-04-11T05:10:07.313Z,16.4423
2023-04-11T05:11:09.650Z,18.5351
2023-04-11T05:12:12.059Z,19.0958
2023-04-11T05:13:14.382Z,19.1674
2023-04-11T05:14:16.701Z,16.9995
2023-04-11T05:15:19.038Z,17.9929
2023-04-11T05:16:21.388Z,17.6403
2023-04-11T05:17:25.309Z,15.9864
2023-04-11T05:18:26.029Z,14.7751
2023-04-11T05:19:28.360Z,13.8955
2023-04-11T05:20:30.690Z,11.5848
2023-04-11T05:21:33.019Z,12.9518
2023-04-11T05:22:35.374Z,12.0116
2023-04-11T05:23:37.725Z,11.9695
2023-04-11T05:24:40.012Z,11.6025
2023-04-11T05:25:42.324Z,12.3846
2023-04-11T05:26:44.676Z,9.4806
2023-04-11T05:27:46.997Z,8.2583
2023-04-11T05:28:49.313Z,9.6269
2023-04-11T05:29:51.659Z,9.0912
2023-04-11T05:30:53.999Z,9.6538
2023-04-11T05:31:56.304Z,8.8128
2023-04-11T05:32:58.681Z,8.7634
2023-04-11T05:34:00.974Z,9.5437
2023-04-11T05:35:03.329Z,8.7733
2023-04-11T05:36:05.668Z,8.2978
2023-04-11T05:37:07.954Z,9.5049
2023-04-11T05:38:10.301Z,9.6307
2023-04-11T05:39:12.626Z,8.6821
2023-04-11T05:40:14.950Z,8.9492
2023-04-11T05:41:17.269Z,9.3057
2023-04-11T05:42:19.621Z,8.0544
2023-04-11T05:43:21.953Z,9.6623
2023-04-11T05:44:24.285Z,10.2177
2023-04-11T05:45:26.592Z,9.0667
2023-04-11T05:46:28.973Z,9.3354
2023-04-11T05:47:31.289Z,8.9610
2023-04-11T05:48:33.592Z,9.5484
2023-04-11T05:49:35.933Z,9.5866
2023-04-11T05:50:38.247Z,9.7115
2023-04-11T05:51:40.580Z,9.3053
2023-04-11T05:52:42.906Z,8.6679
2023-04-11T05:53:45.252Z,13.1787
2023-04-11T05:54:47.572Z,13.7130
2023-04-11T05:55:49.903Z,9.2391
2023-04-11T05:56:52.242Z,8.0483
2023-04-11T05:57:54.583Z,8.7011
2023-04-11T05:58:56.915Z,7.2811
2023-04-11T05:59:59.234Z,8.0668
2023-04-11T06:01:01.579Z,8.2868
2023-04-11T06:02:03.990Z,8.9546
2023-04-11T06:03:06.289Z,7.6782
2023-04-11T06:04:08.776Z,6.5130
2023-04-11T06:05:10.969Z,7.8814
2023-04-11T06:06:13.237Z,8.9932
2023-04-11T06:07:15.582Z,6.0918
2023-04-11T06:08:17.906Z,7.1045
2023-04-11T06:09:20.268Z,7.2699
2023-04-11T06:10:22.572Z,7.3688
2023-04-11T06:11:24.906Z,5.1192
2023-04-11T06:12:27.237Z,6.2018
2023-04-11T06:13:29.564Z,7.5693
2023-04-11T06:14:31.941Z,6.9348
2023-04-11T06:15:34.307Z,7.4931
2023-04-11T06:16:36.556Z,7.4695
2023-04-11T06:17:38.915Z,5.8671
2023-04-11T06:18:41.219Z,5.9831
2023-04-11T06:19:43.546Z,6.7715
2023-04-11T06:20:45.879Z,5.7905
2023-04-11T06:21:48.204Z,6.3725
2023-04-11T06:22:50.539Z,6.1825
2023-04-11T06:23:52.863Z,5.9403
2023-04-11T06:24:55.194Z,6.0780
2023-04-11T06:25:57.565Z,6.8104
2023-04-11T06:26:59.859Z,6.6882
2023-04-11T06:28:02.219Z,6.3975
2023-04-11T06:29:04.521Z,6.1255
2023-04-11T06:30:06.842Z,5.3355
2023-04-11T06:31:09.347Z,5.6341
2023-04-11T06:32:11.512Z,5.9708
2023-04-11T06:33:13.846Z,6.0023
2023-04-11T06:34:16.177Z,5.8998
2023-04-11T06:35:18.511Z,5.9432
2023-04-11T06:36:20.887Z,5.2299
2023-04-11T06:37:23.181Z,6.0776
2023-04-11T06:38:25.499Z,5.4996
2023-04-11T06:39:27.832Z,5.2908
2023-04-11T06:40:30.236Z,5.8030
2023-04-11T06:41:32.514Z,5.7395
2023-04-11T06:42:34.916Z,5.6418
2023-04-11T06:43:37.162Z,6.0803
2023-04-11T06:44:39.512Z,4.9807
2023-04-11T06:45:41.831Z,5.3452
2023-04-11T06:46:44.244Z,6.8591
2023-04-11T06:47:46.539Z,7.0527
2023-04-11T06:48:48.835Z,6.1993
2023-04-11T06:49:51.152Z,7.3148
2023-04-11T06:50:53.487Z,6.8674
2023-04-11T06:51:55.849Z,6.7627
2023-04-11T06:52:58.151Z,5.9624
2023-04-11T06:54:00.483Z,5.9584
2023-04-11T06:55:02.824Z,5.5243
2023-04-11T06:56:05.141Z,6.5285
2023-04-11T06:57:07.487Z,6.9018
2023-04-11T06:58:09.803Z,5.5254
2023-04-11T06:59:12.129Z,6.8404
2023-04-11T07:00:14.486Z,6.8647
2023-04-11T07:01:16.830Z,7.6286
2023-04-11T07:02:19.263Z,6.4275
2023-04-11T07:03:21.592Z,6.1044
2023-04-11T07:04:23.981Z,8.2129
2023-04-11T07:05:26.157Z,7.0049
2023-04-11T07:06:28.455Z,6.2909
2023-04-11T07:07:30.897Z,5.7027
2023-04-11T07:08:33.131Z,6.8616
2023-04-11T07:09:35.498Z,6.1738
2023-04-11T07:10:37.771Z,6.9487
2023-04-11T07:11:40.108Z,6.6971
2023-04-11T07:12:42.436Z,7.0485
2023-04-11T07:13:44.881Z,6.6433
2023-04-11T07:14:47.092Z,6.2141
2023-04-11T07:15:49.471Z,6.3518
2023-04-11T07:16:51.765Z,6.1142
2023-04-11T07:17:54.142Z,6.7601
2023-04-11T07:18:56.428Z,7.0884
2023-04-11T07:19:58.764Z,7.1037
2023-04-11T07:21:01.225Z,5.7181
2023-04-11T07:22:03.426Z,5.5773
2023-04-11T07:23:05.757Z,6.7683
2023-04-11T07:24:08.092Z,7.4363
2023-04-11T07:25:10.419Z,6.7639
2023-04-11T07:26:12.749Z,7.6289
2023-04-11T07:27:15.090Z,6.4011
2023-04-11T07:28:17.407Z,5.4345
2023-04-11T07:29:19.742Z,6.1200
2023-04-11T07:30:22.065Z,8.1562
2023-04-11T07:31:24.412Z,7.9896
2023-04-11T07:32:26.801Z,7.0562
2023-04-11T07:33:29.055Z,6.4822
2023-04-11T07:34:31.390Z,6.6640
2023-04-11T07:35:33.761Z,6.0348
2023-04-11T07:36:36.056Z,5.9229
2023-04-11T07:37:38.397Z,5.8681
2023-04-11T07:38:40.715Z,5.7406
2023-04-11T07:39:43.062Z,7.3504
2023-04-11T07:40:45.371Z,7.5238
2023-04-11T07:41:47.697Z,7.8360
2023-04-11T07:42:50.038Z,6.4933
2023-04-11T07:43:52.356Z,7.2921
2023-04-11T07:44:54.697Z,6.3861
2023-04-11T07:45:57.048Z,5.4924
2023-04-11T07:46:59.332Z,5.4846
2023-04-11T07:48:01.689Z,4.9311
2023-04-11T07:49:04.001Z,3.7412
2023-04-11T07:50:06.329Z,4.4786
2023-04-11T07:51:08.648Z,4.6678
2023-04-11T07:52:12.454Z,4.6741
2023-04-11T07:53:13.316Z,5.2853
2023-04-11T07:54:15.648Z,5.3875
2023-04-11T07:55:17.980Z,4.7226
2023-04-11T07:56:20.305Z,4.8591
2023-04-11T07:57:22.647Z,5.5257
2023-04-11T07:58:24.962Z,5.2259
2023-04-11T07:59:27.309Z,3.1634
2023-04-11T08:00:29.644Z,4.4935
2023-04-11T08:01:31.960Z,3.7329
2023-04-11T08:02:34.396Z,4.3159
2023-04-11T08:03:36.939Z,3.9538
2023-04-11T08:04:39.023Z,3.6204
2023-04-11T08:05:41.285Z,4.1204
2023-04-11T08:06:43.614Z,3.9183
2023-04-11T08:07:45.943Z,3.9989
2023-04-11T08:08:48.266Z,3.6885
2023-04-11T08:09:50.605Z,3.6606
2023-04-11T08:10:52.954Z,3.4725
2023-04-11T08:11:55.264Z,3.4006
2023-04-11T08:12:57.606Z,3.1941
2023-04-11T08:13:59.911Z,3.0439
2023-04-11T08:15:02.253Z,3.7062
2023-04-11T08:16:04.623Z,3.1736
2023-04-11T08:17:17.714Z,3.5604
2023-04-11T08:18:12.288Z,3.2321
2023-04-11T08:19:11.553Z,2.9712
2023-04-11T08:20:13.907Z,4.2151
2023-04-11T08:21:16.228Z,4.6973
2023-04-11T08:22:18.566Z,3.4655
2023-04-11T08:23:20.879Z,3.3934
2023-04-11T08:24:23.224Z,3.0017
2023-04-11T08:25:25.586Z,3.6891
2023-04-11T08:26:27.880Z,4.1950
2023-04-11T08:27:30.200Z,3.2237
2023-04-11T08:28:32.521Z,4.7410
2023-04-11T08:29:34.844Z,4.2317
2023-04-11T08:30:37.217Z,3.3659
2023-04-11T08:31:39.525Z,4.1465
2023-04-11T08:32:41.848Z,3.6677
2023-04-11T08:33:44.152Z,4.2106
2023-04-11T08:34:46.492Z,4.0140
2023-04-11T08:35:48.816Z,4.4194
2023-04-11T08:36:51.152Z,4.6454
2023-04-11T08:37:53.472Z,4.5464
2023-04-11T08:38:55.801Z,3.9711
2023-04-11T08:39:58.175Z,3.4469
2023-04-11T08:41:00.469Z,3.5802
2023-04-11T08:42:02.782Z,4.1281
2023-04-11T08:43:05.116Z,4.1685
2023-04-11T08:44:07.438Z,4.5570
2023-04-11T08:45:09.767Z,4.5836
2023-04-11T08:46:12.143Z,4.9280
2023-04-11T08:47:14.422Z,4.5857
2023-04-11T08:48:16.760Z,4.0012
2023-04-11T08:49:19.079Z,4.6119
2023-04-11T08:50:21.420Z,6.3567
2023-04-11T08:51:23.742Z,4.9360
2023-04-11T08:52:26.066Z,4.6191
2023-04-11T08:53:28.411Z,5.2339
2023-04-11T08:54:30.764Z,4.4788
2023-04-11T08:55:33.064Z,4.5643
2023-04-11T08:56:35.412Z,4.9764
2023-04-11T08:57:37.727Z,6.0965
2023-04-11T08:58:41.363Z,7.0744
2023-04-11T08:59:42.398Z,8.9809
2023-04-11T09:00:44.719Z,5.1214
2023-04-11T09:01:47.095Z,4.5948
2023-04-11T09:02:49.439Z,6.7347
2023-04-11T09:03:51.712Z,5.8488
2023-04-11T09:04:54.057Z,4.4697
2023-04-11T09:05:56.395Z,6.0065
2023-04-11T09:07:00.678Z,7.4908
2023-04-11T09:08:01.029Z,18.9260
2023-04-11T09:09:03.363Z,14.6102
2023-04-11T09:10:05.687Z,12.4243
2023-04-11T09:11:08.017Z,20.5329
2023-04-11T09:12:10.364Z,17.9519
2023-04-11T09:13:12.686Z,8.9238
2023-04-11T09:14:15.057Z,6.5346
2023-04-11T09:15:17.331Z,8.7741
2023-04-11T09:16:19.761Z,16.0391
2023-04-11T09:17:22.082Z,6.2053
2023-04-11T09:18:24.406Z,5.4240
2023-04-11T09:19:26.735Z,5.3348
2023-04-11T09:20:29.071Z,24.2684
2023-04-11T09:21:31.403Z,67.4390
2023-04-11T09:22:33.720Z,25.4636
2023-04-11T09:23:36.057Z,15.3010
2023-04-11T09:24:38.399Z,9.0057
2023-04-11T09:25:40.724Z,6.6497
2023-04-11T09:26:43.050Z,5.8187
2023-04-11T09:27:45.453Z,5.7527
2023-04-11T09:28:47.720Z,7.6739
2023-04-11T09:29:50.048Z,5.9684
2023-04-11T09:30:52.461Z,7.1411
2023-04-11T09:31:54.712Z,5.0231
2023-04-11T09:32:57.083Z,5.6927
2023-04-11T09:33:59.714Z,5.4097
2023-04-11T09:35:01.708Z,5.2625
2023-04-11T09:36:04.099Z,6.5530
2023-04-11T09:37:06.453Z,6.0866
2023-04-11T09:38:08.691Z,7.7628
2023-04-11T09:39:11.021Z,6.6835
2023-04-11T09:40:13.360Z,6.7450
2023-04-11T09:41:15.709Z,5.8336
2023-04-11T09:42:18.021Z,7.1492
2023-04-11T09:43:20.477Z,25.6578
2023-04-11T09:44:22.698Z,26.0869
2023-04-11T09:45:25.013Z,10.0286
2023-04-11T09:46:27.405Z,7.2906
2023-04-11T09:47:29.701Z,7.3472
2023-04-11T09:48:45.516Z,7.1092
2023-04-11T09:49:34.350Z,6.4027
2023-04-11T09:50:36.672Z,6.4464
2023-04-11T09:51:39.017Z,6.4431
2023-04-11T09:52:41.335Z,6.1722
2023-04-11T09:53:43.671Z,6.5172
2023-04-11T09:54:46.022Z,6.2214
2023-04-11T09:55:48.337Z,6.1823
2023-04-11T09:56:50.693Z,6.8673
2023-04-11T09:57:53.008Z,6.5748
2023-04-11T09:58:55.534Z,8.0032
2023-04-11T09:59:57.664Z,9.9619
2023-04-11T10:00:59.997Z,11.4941
2023-04-11T10:02:02.393Z,12.3038
2023-04-11T10:03:04.745Z,14.4226
2023-04-11T10:04:06.997Z,6.0199
2023-04-11T10:05:09.369Z,11.0122
2023-04-11T10:06:11.663Z,10.8937
2023-04-11T10:07:14.005Z,11.7928
2023-04-11T10:08:16.337Z,8.3679
2023-04-11T10:09:18.661Z,7.1476
2023-04-11T10:10:21.096Z,6.7728
2023-04-11T10:11:24.353Z,6.4898
2023-04-11T10:12:25.672Z,7.3870
2023-04-11T10:13:28.028Z,6.1160
2023-04-11T10:14:30.339Z,6.1507
2023-04-11T10:15:32.684Z,7.1899
2023-04-11T10:16:35.072Z,6.4130
2023-04-11T10:17:37.398Z,6.1972
2023-04-11T10:18:39.688Z,6.4481
2023-04-11T10:19:42.009Z,6.5764
2023-04-11T10:20:44.344Z,6.1488
2023-04-11T10:21:46.684Z,6.1461
2023-04-11T10:22:49.010Z,5.3772
2023-04-11T10:23:51.347Z,5.0546
2023-04-11T10:24:53.677Z,6.3272
2023-04-11T10:25:56.010Z,6.3684
2023-04-11T10:26:58.350Z,5.5627
2023-04-11T10:28:00.872Z,5.3598
2023-04-11T10:29:03.021Z,6.3745
2023-04-11T10:30:05.343Z,5.3938
2023-04-11T10:31:07.778Z,6.1407
2023-04-11T10:32:10.029Z,7.3718
2023-04-11T10:33:12.363Z,6.7244
2023-04-11T10:34:14.716Z,6.7878
2023-04-11T10:35:17.014Z,6.9294
2023-04-11T10:36:22.671Z,5.5433
2023-04-11T10:37:21.692Z,6.2379
2023-04-11T10:38:24.022Z,6.1782
2023-04-11T10:39:26.371Z,7.0812
2023-04-11T10:40:28.697Z,8.3093
2023-04-11T10:41:31.027Z,6.3738
2023-04-11T10:42:33.354Z,6.0173
2023-04-11T10:43:37.942Z,6.1618
2023-04-11T10:44:38.030Z,6.7217
2023-04-11T10:45:40.375Z,6.4013
2023-04-11T10:46:42.763Z,5.7485
2023-04-11T10:47:45.042Z,8.0731
2023-04-11T10:48:47.360Z,6.1315
2023-04-11T10:49:49.695Z,6.7577
2023-04-11T10:50:52.040Z,7.4340
2023-04-11T10:51:54.397Z,6.3740
2023-04-11T10:52:56.716Z,5.9109
2023-04-11T10:53:59.157Z,6.7468
2023-04-11T10:55:01.381Z,6.4423
2023-04-11T10:56:03.739Z,6.0337
2023-04-11T10:57:06.056Z,6.6527
2023-04-11T10:58:08.470Z,7.2462
2023-04-11T10:59:10.746Z,6.7732
2023-04-11T11:00:13.118Z,7.2709
2023-04-11T11:01:25.925Z,7.6674
2023-04-11T11:02:17.834Z,9.7609
2023-04-11T11:03:20.166Z,8.7101
2023-04-11T11:04:22.467Z,7.9794
2023-04-11T11:05:24.733Z,6.8098
2023-04-11T11:06:27.073Z,6.9607
2023-04-11T11:07:29.450Z,7.1611
2023-04-11T11:08:31.813Z,6.1026
2023-04-11T11:09:34.081Z,6.0201
2023-04-11T11:10:36.424Z,6.8423
2023-04-11T11:11:38.750Z,6.7800
2023-04-11T11:12:41.096Z,5.8016
2023-04-11T11:13:43.430Z,6.5302
2023-04-11T11:14:45.766Z,6.4093
2023-04-11T11:15:48.096Z,6.5041
2023-04-11T11:16:50.481Z,6.4639
2023-04-11T11:17:52.864Z,6.7658
2023-04-11T11:18:55.118Z,6.0769
2023-04-11T11:19:57.456Z,6.5989
2023-04-11T11:20:59.797Z,7.1019
2023-04-11T11:22:02.147Z,7.1977
2023-04-11T11:23:04.495Z,6.3407
2023-04-11T11:24:06.804Z,7.3602
2023-04-11T11:25:09.147Z,7.4951
2023-04-11T11:26:11.477Z,5.9717
2023-04-11T11:27:13.822Z,6.5069
2023-04-11T11:28:16.177Z,6.5578
2023-04-11T11:29:18.507Z,6.0241
2023-04-11T11:30:20.835Z,6.3419
2023-04-11T11:31:23.202Z,7.1559
2023-04-11T11:32:25.547Z,6.8057
2023-04-11T11:33:27.892Z,5.7527
2023-04-11T11:34:30.192Z,6.7312
2023-04-11T11:35:32.529Z,7.2137
2023-04-11T11:36:34.907Z,6.5977
2023-04-11T11:37:37.193Z,6.7936
2023-04-11T11:38:39.535Z,7.4438
2023-04-11T11:39:41.870Z,6.3479
2023-04-11T11:40:44.214Z,7.0807
2023-04-11T11:41:46.553Z,6.3221
2023-04-11T11:42:48.884Z,6.6554
2023-04-11T11:43:51.219Z,8.3658
2023-04-11T11:44:53.554Z,6.0631
2023-04-11T11:45:55.944Z,6.4398
2023-04-11T11:46:58.236Z,7.4199
2023-04-11T11:48:00.598Z,7.1275
2023-04-11T11:49:03.037Z,7.1717
2023-04-11T11:50:05.245Z,6.8233
2023-04-11T11:51:07.599Z,8.1170
2023-04-11T11:52:09.919Z,6.5968
2023-04-11T11:53:12.257Z,7.3099
2023-04-11T11:54:14.724Z,6.7610
2023-04-11T11:55:16.935Z,6.4805
2023-04-11T11:56:19.287Z,6.6678
2023-04-11T11:57:21.613Z,5.9251
2023-04-11T11:58:23.949Z,7.3159
2023-04-11T11:59:26.285Z,7.3898
2023-04-11T12:00:28.626Z,6.5141
2023-04-11T12:01:30.977Z,6.8325
2023-04-11T12:02:33.492Z,6.3672
2023-04-11T12:03:35.780Z,6.1344
2023-04-11T12:04:38.261Z,6.1598
2023-04-11T12:05:40.320Z,6.5783
2023-04-11T12:06:42.676Z,8.4309
2023-04-11T12:07:44.999Z,8.3863
2023-04-11T12:08:47.601Z,6.2700
2023-04-11T12:09:49.686Z,7.4017
2023-04-11T12:10:52.013Z,7.4501
2023-04-11T12:11:54.344Z,6.9356
2023-04-11T12:12:56.678Z,6.9336
2023-04-11T12:13:59.313Z,7.5133
2023-04-11T12:15:01.358Z,6.7476
2023-04-11T12:16:03.778Z,6.1514
2023-04-11T12:17:06.034Z,7.7784
2023-04-11T12:18:08.407Z,6.9922
2023-04-11T12:19:10.688Z,6.5652
2023-04-11T12:20:13.029Z,6.9612
2023-04-11T12:21:15.375Z,8.1052
2023-04-11T12:22:17.712Z,8.0258
2023-04-11T12:23:20.047Z,7.4702
2023-04-11T12:24:22.382Z,6.5971
2023-04-11T12:25:24.708Z,6.8141
2023-04-11T12:26:27.036Z,8.3035
2023-04-11T12:27:29.376Z,7.8982
2023-04-11T12:28:31.711Z,8.0087
2023-04-11T12:29:34.042Z,8.1888
2023-04-11T12:30:36.394Z,6.2180
2023-04-11T12:31:38.765Z,6.8994
2023-04-11T12:32:41.065Z,7.9026
2023-04-11T12:33:43.401Z,8.4125
2023-04-11T12:34:45.726Z,7.3579
2023-04-11T12:35:48.078Z,6.4074
2023-04-11T12:36:50.396Z,7.0985
2023-04-11T12:37:52.738Z,6.3776
2023-04-11T12:38:55.170Z,9.2012
2023-04-11T12:39:57.414Z,7.8873
2023-04-11T12:41:14.396Z,6.8841
2023-04-11T12:42:02.078Z,7.2813
2023-04-11T12:43:04.424Z,8.0458
2023-04-11T12:44:06.751Z,8.4218
2023-04-11T12:45:09.084Z,7.4829
2023-04-11T12:46:11.465Z,7.7919
2023-04-11T12:47:13.779Z,9.0076